createdAt,value
2023-02-27T00:01:13.334Z,97350.05
2023-02-27T00:03:42.855Z,97345.02
2023-02-27T00:06:12.720Z,97347.42
2023-02-27T00:08:45.345Z,97346.48
2023-02-27T00:11:14.661Z,97341.77
2023-02-27T00:13:58.907Z,97339.83
2023-02-27T00:16:28.540Z,97330.42
2023-02-27T00:19:01.874Z,97335.94
2023-02-27T00:21:31.696Z,97343.92
2023-02-27T00:24:01.768Z,97341.11
2023-02-27T00:26:32.062Z,97337.46
2023-02-27T00:29:01.805Z,97338.04
2023-02-27T00:31:32.738Z,97333.94
2023-02-27T00:34:02.576Z,97330.33
2023-02-27T00:36:32.230Z,97331.79
2023-02-27T00:39:01.602Z,97331.35
2023-02-27T00:41:30.669Z,97334.02
2023-02-27T00:44:00.182Z,97335.80
2023-02-27T00:46:30.460Z,97338.19
2023-02-27T00:49:00.766Z,97342.11
2023-02-27T00:51:31.118Z,97342.20
2023-02-27T00:54:00.926Z,97346.89
2023-02-27T00:56:30.597Z,97340.08
2023-02-27T00:59:00.292Z,97335.40
2023-02-27T01:01:30.040Z,97334.05
2023-02-27T01:03:59.870Z,97339.52
2023-02-27T01:06:29.864Z,97338.16
2023-02-27T01:08:59.316Z,97343.70
2023-02-27T01:11:28.482Z,97343.90
2023-02-27T01:13:57.873Z,97343.36
2023-02-27T01:16:27.841Z,97341.41
2023-02-27T01:18:58.110Z,97349.63
2023-02-27T01:21:28.327Z,97344.92
2023-02-27T01:23:59.839Z,97341.23
2023-02-27T01:26:30.118Z,97341.79
2023-02-27T01:29:00.239Z,97339.83
2023-02-27T01:31:35.369Z,97338.23
2023-02-27T01:34:05.866Z,97342.96
2023-02-27T01:36:36.339Z,97347.19
2023-02-27T01:39:06.038Z,97344.24
2023-02-27T01:41:36.434Z,97336.08
2023-02-27T01:44:10.778Z,97342.68
2023-02-27T01:46:41.724Z,97342.43
2023-02-27T01:49:25.775Z,97337.93
2023-02-27T01:52:06.090Z,97334.67
2023-02-27T01:54:42.549Z,97331.48
2023-02-27T01:57:12.709Z,97330.14
2023-02-27T01:59:44.127Z,97332.40
2023-02-27T02:02:30.615Z,97335.55
2023-02-27T02:05:01.618Z,97339.42
2023-02-27T02:07:32.626Z,97339.73
2023-02-27T02:10:03.228Z,97337.11
2023-02-27T02:12:37.409Z,97338.12
2023-02-27T02:15:09.038Z,97336.61
2023-02-27T02:18:00.893Z,97346.40
2023-02-27T02:20:52.565Z,97354.96
2023-02-27T02:23:31.754Z,97355.37
2023-02-27T02:26:24.957Z,97353.42
2023-02-27T02:29:19.083Z,97352.61
2023-02-27T02:32:22.630Z,97353.77
2023-02-27T02:35:19.035Z,97361.94
2023-02-27T02:38:03.244Z,97368.79
2023-02-27T02:40:39.187Z,97373.32
2023-02-27T02:43:32.154Z,97375.30
2023-02-27T02:46:02.170Z,97378.08
2023-02-27T02:49:08.336Z,97371.97
2023-02-27T02:52:17.440Z,97372.70
2023-02-27T02:55:11.412Z,97377.17
2023-02-27T02:57:51.305Z,97385.64
2023-02-27T03:00:31.540Z,97379.55
2023-02-27T03:03:20.108Z,97381.96
2023-02-27T03:05:59.699Z,97384.48
2023-02-27T03:08:35.486Z,97391.52
2023-02-27T03:11:06.316Z,97395.20
2023-02-27T03:13:51.946Z,97400.30
2023-02-27T03:16:34.428Z,97403.13
2023-02-27T03:19:16.320Z,97405.27
2023-02-27T03:22:11.241Z,97409.30
2023-02-27T03:25:03.787Z,97413.33
2023-02-27T03:27:44.092Z,97413.70
2023-02-27T03:30:28.209Z,97417.52
2023-02-27T03:33:03.464Z,97418.70
2023-02-27T03:36:06.971Z,97415.86
2023-02-27T03:38:43.241Z,97418.48
2023-02-27T03:41:45.769Z,97422.02
2023-02-27T03:44:56.048Z,97425.64
2023-02-27T03:47:25.469Z,97425.83
2023-02-27T03:49:56.454Z,97424.06
2023-02-27T03:52:30.839Z,97424.69
2023-02-27T03:55:17.564Z,97430.19
2023-02-27T03:57:50.069Z,97433.57
2023-02-27T04:00:24.359Z,97433.45
2023-02-27T04:02:56.900Z,97436.83
2023-02-27T04:05:31.070Z,97440.30
2023-02-27T04:08:47.641Z,97443.02
2023-02-27T04:11:42.818Z,97455.35
2023-02-27T04:14:29.529Z,97457.23
2023-02-27T04:17:16.480Z,97452.75
2023-02-27T04:20:15.233Z,97450.14
2023-02-27T04:23:15.266Z,97452.90
2023-02-27T04:26:10.290Z,97452.97
2023-02-27T04:29:08.184Z,97456.77
2023-02-27T04:31:51.672Z,97461.71
2023-02-27T04:34:28.456Z,97468.58
2023-02-27T04:37:40.553Z,97473.56
2023-02-27T04:40:17.828Z,97469.05
2023-02-27T04:42:55.605Z,97474.34
2023-02-27T04:45:27.993Z,97474.86
2023-02-27T04:48:10.005Z,97470.79
2023-02-27T04:51:12.552Z,97472.44
2023-02-27T04:54:00.200Z,97476.08
2023-02-27T04:56:36.686Z,97483.79
2023-02-27T04:59:14.161Z,97492.09
2023-02-27T05:02:08.292Z,97494.27
2023-02-27T05:04:42.463Z,97499.58
2023-02-27T05:07:18.239Z,97506.63
2023-02-27T05:10:03.884Z,97507.83
2023-02-27T05:12:44.437Z,97510.27
2023-02-27T05:15:36.320Z,97513.83
2023-02-27T05:18:10.034Z,97522.21
2023-02-27T05:20:51.164Z,97530.17
2023-02-27T05:23:33.585Z,97534.45
2023-02-27T05:26:13.578Z,97533.98
2023-02-27T05:29:10.652Z,97534.94
2023-02-27T05:32:21.358Z,97544.91
2023-02-27T05:35:08.582Z,97554.50
2023-02-27T05:38:04.425Z,97556.39
2023-02-27T05:40:44.874Z,97562.83
2023-02-27T05:43:32.235Z,97562.25
2023-02-27T05:46:11.603Z,97572.27
2023-02-27T05:48:58.771Z,97580.02
2023-02-27T05:51:32.822Z,97589.60
2023-02-27T05:54:14.454Z,97587.97
2023-02-27T05:56:50.717Z,97591.60
2023-02-27T05:59:29.253Z,97598.85
2023-02-27T06:02:00.202Z,97600.25
2023-02-27T06:04:29.543Z,97606.90
2023-02-27T06:06:59.849Z,97608.44
2023-02-27T06:09:30.703Z,97609.64
2023-02-27T06:12:02.486Z,97609.73
2023-02-27T06:14:31.702Z,97614.17
2023-02-27T06:17:03.481Z,97619.25
2023-02-27T06:19:33.238Z,97624.94
2023-02-27T06:22:02.205Z,97624.76
2023-02-27T06:24:31.281Z,97624.95
2023-02-27T06:27:01.231Z,97632.40
2023-02-27T06:29:30.566Z,97634.03
2023-02-27T06:32:00.217Z,97636.58
2023-02-27T06:34:29.739Z,97638.51
2023-02-27T06:36:59.299Z,97642.78
2023-02-27T06:39:29.761Z,97644.15
2023-02-27T06:41:58.788Z,97650.98
2023-02-27T06:44:28.313Z,97660.55
2023-02-27T06:47:00.286Z,97663.04
2023-02-27T06:49:32.674Z,97659.48
2023-02-27T06:52:02.451Z,97664.84
2023-02-27T06:54:35.091Z,97665.00
2023-02-27T06:57:08.805Z,97664.92
2023-02-27T06:59:43.464Z,97665.43
2023-02-27T07:02:16.480Z,97665.42
2023-02-27T07:04:46.927Z,97671.94
2023-02-27T07:07:35.977Z,97674.06
2023-02-27T07:10:12.696Z,97676.06
2023-02-27T07:12:42.556Z,97675.96
2023-02-27T07:15:12.975Z,97681.65
2023-02-27T07:17:45.119Z,97685.67
2023-02-27T07:20:17.697Z,97685.99
2023-02-27T07:22:47.375Z,97686.15
2023-02-27T07:25:16.800Z,97692.13
2023-02-27T07:27:49.980Z,97694.45
2023-02-27T07:30:19.918Z,97699.38
2023-02-27T07:32:51.287Z,97701.62
2023-02-27T07:35:24.708Z,97710.36
2023-02-27T07:37:54.393Z,97715.63
2023-02-27T07:40:25.063Z,97722.11
2023-02-27T07:42:55.484Z,97726.54
2023-02-27T07:45:25.576Z,97730.95
2023-02-27T07:47:56.836Z,97732.77
2023-02-27T07:50:26.314Z,97735.61
2023-02-27T07:52:55.575Z,97738.89
2023-02-27T07:55:26.532Z,97740.80
2023-02-27T07:57:56.258Z,97744.06
2023-02-27T08:00:26.826Z,97742.58
2023-02-27T08:03:10.969Z,97743.55
2023-02-27T08:05:44.654Z,97747.90
2023-02-27T08:08:13.969Z,97753.46
2023-02-27T08:10:43.350Z,97758.63
2023-02-27T08:13:30.117Z,97760.77
2023-02-27T08:16:08.257Z,97767.33
2023-02-27T08:18:37.916Z,97767.33
2023-02-27T08:21:10.768Z,97773.15
2023-02-27T08:23:42.585Z,97780.94
2023-02-27T08:26:12.647Z,97782.56
2023-02-27T08:28:42.165Z,97784.96
2023-02-27T08:31:11.641Z,97784.66
2023-02-27T08:33:42.630Z,97785.25
2023-02-27T08:36:15.423Z,97791.70
2023-02-27T08:38:45.762Z,97794.73
2023-02-27T08:41:15.560Z,97798.63
2023-02-27T08:43:45.819Z,97806.15
2023-02-27T08:46:16.465Z,97813.63
2023-02-27T08:48:45.766Z,97820.31
2023-02-27T08:51:15.497Z,97826.52
2023-02-27T08:53:46.662Z,97827.47
2023-02-27T08:56:16.327Z,97829.95
2023-02-27T08:58:46.692Z,97828.17
2023-02-27T09:01:16.062Z,97836.45
2023-02-27T09:03:46.787Z,97841.70
2023-02-27T09:06:17.014Z,97843.73
2023-02-27T09:08:46.454Z,97849.11
2023-02-27T09:11:15.935Z,97853.55
2023-02-27T09:13:46.762Z,97863.11
2023-02-27T09:16:16.055Z,97868.74
2023-02-27T09:18:46.933Z,97871.25
2023-02-27T09:21:17.888Z,97876.30
2023-02-27T09:23:48.822Z,97878.12
2023-02-27T09:26:28.959Z,97875.22
2023-02-27T09:29:09.519Z,97879.08
2023-02-27T09:31:40.154Z,97877.11
2023-02-27T09:34:10.773Z,97883.68
2023-02-27T09:36:43.468Z,97887.63
2023-02-27T09:39:12.711Z,97889.27
2023-02-27T09:42:00.279Z,97895.20
2023-02-27T09:44:50.074Z,97903.95
2023-02-27T09:47:29.971Z,97910.48
2023-02-27T09:50:19.305Z,97917.91
2023-02-27T09:52:55.705Z,97923.95
2023-02-27T09:55:32.374Z,97922.74
2023-02-27T09:58:21.959Z,97921.13
2023-02-27T10:01:29.636Z,97924.44
2023-02-27T10:04:26.718Z,97924.27
2023-02-27T10:07:21.438Z,97924.59
2023-02-27T10:10:15.484Z,97931.20
2023-02-27T10:12:53.653Z,97938.68
2023-02-27T10:15:23.586Z,97939.16
2023-02-27T10:18:26.125Z,97937.96
2023-02-27T10:21:06.811Z,97942.86
2023-02-27T10:24:07.621Z,97948.70
2023-02-27T10:26:46.124Z,97949.10
2023-02-27T10:29:32.570Z,97947.92
2023-02-27T10:32:20.324Z,97944.64
2023-02-27T10:35:10.684Z,97947.76
2023-02-27T10:37:49.891Z,97950.17
2023-02-27T10:40:21.259Z,97948.20
2023-02-27T10:42:54.328Z,97949.69
2023-02-27T10:45:24.473Z,97955.69
2023-02-27T10:47:54.956Z,97964.77
2023-02-27T10:50:26.814Z,97969.03
2023-02-27T10:53:02.912Z,97977.05
2023-02-27T10:55:36.367Z,97985.95
2023-02-27T10:58:08.125Z,97991.09
2023-02-27T11:00:56.113Z,97995.71
2023-02-27T11:03:32.789Z,98002.83
2023-02-27T11:06:12.243Z,98008.80
2023-02-27T11:08:42.100Z,98011.09
2023-02-27T11:11:12.987Z,98005.73
2023-02-27T11:13:45.540Z,98005.14
2023-02-27T11:16:40.311Z,98004.98
2023-02-27T11:19:39.746Z,98008.30
2023-02-27T11:22:20.980Z,98014.19
2023-02-27T11:25:10.795Z,98024.01
2023-02-27T11:27:42.915Z,98023.92
2023-02-27T11:30:28.842Z,98024.89
2023-02-27T11:33:02.019Z,98033.52
2023-02-27T11:35:39.577Z,98035.98
2023-02-27T11:38:24.986Z,98038.95
2023-02-27T11:41:04.243Z,98043.40
2023-02-27T11:43:50.820Z,98042.45
2023-02-27T11:46:45.175Z,98050.66
2023-02-27T11:49:36.252Z,98053.55
2023-02-27T11:52:22.745Z,98056.96
2023-02-27T11:54:58.580Z,98057.88
2023-02-27T11:57:39.799Z,98057.05
2023-02-27T12:00:31.810Z,98059.07
2023-02-27T12:03:36.018Z,98065.73
2023-02-27T12:06:30.655Z,98072.56
2023-02-27T12:09:14.295Z,98073.77
2023-02-27T12:11:47.335Z,98077.83
2023-02-27T12:14:40.123Z,98083.89
2023-02-27T12:17:21.652Z,98091.48
2023-02-27T12:20:22.921Z,98097.05
2023-02-27T12:22:55.194Z,98102.10
2023-02-27T12:25:53.226Z,98104.45
2023-02-27T12:28:39.134Z,98107.62
2023-02-27T12:31:35.642Z,98110.37
2023-02-27T12:34:29.831Z,98116.92
2023-02-27T12:37:12.395Z,98116.58
2023-02-27T12:39:46.424Z,98125.23
2023-02-27T12:42:45.224Z,98127.91
2023-02-27T12:45:21.511Z,98130.99
2023-02-27T12:48:21.661Z,98138.56
2023-02-27T12:51:10.391Z,98140.75
2023-02-27T12:53:49.062Z,98150.52
2023-02-27T12:57:02.687Z,98154.02
2023-02-27T13:00:07.628Z,98164.65
2023-02-27T13:02:53.338Z,98167.46
2023-02-27T13:05:32.940Z,98174.39
2023-02-27T13:08:28.475Z,98177.40
2023-02-27T13:11:12.786Z,98185.52
2023-02-27T13:14:04.651Z,98192.20
2023-02-27T13:16:41.630Z,98195.25
2023-02-27T13:19:25.614Z,98194.04
2023-02-27T13:22:19.721Z,98195.10
2023-02-27T13:24:53.600Z,98202.89
2023-02-27T13:27:37.599Z,98200.38
2023-02-27T13:30:23.360Z,98203.91
2023-02-27T13:33:32.249Z,98209.19
2023-02-27T13:36:53.953Z,98208.23
2023-02-27T13:39:49.397Z,98217.91
2023-02-27T13:42:28.293Z,98218.02
2023-02-27T13:45:26.482Z,98226.31
2023-02-27T13:47:57.010Z,98229.33
2023-02-27T13:50:28.286Z,98228.70
2023-02-27T13:53:15.984Z,98231.83
2023-02-27T13:55:45.794Z,98231.77
2023-02-27T13:58:25.109Z,98234.80
2023-02-27T14:01:11.264Z,98236.99
2023-02-27T14:03:41.064Z,98239.00
2023-02-27T14:06:13.452Z,98244.73
2023-02-27T14:08:52.228Z,98252.19
2023-02-27T14:11:41.223Z,98252.69
2023-02-27T14:14:36.841Z,98257.70
2023-02-27T14:17:10.813Z,98259.46
2023-02-27T14:19:41.306Z,98269.25
2023-02-27T14:22:13.289Z,98269.73
2023-02-27T14:25:03.913Z,98277.16
2023-02-27T14:27:51.477Z,98277.04
2023-02-27T14:30:35.098Z,98276.16
2023-02-27T14:33:38.052Z,98275.23
2023-02-27T14:36:34.999Z,98275.05
2023-02-27T14:39:05.133Z,98272.63
2023-02-27T14:41:49.163Z,98283.48
2023-02-27T14:44:24.165Z,98289.52
2023-02-27T14:46:59.454Z,98293.06
2023-02-27T14:49:36.201Z,98292.00
2023-02-27T14:52:24.175Z,98292.34
2023-02-27T14:55:07.235Z,98295.73
2023-02-27T14:57:37.289Z,98301.45
2023-02-27T15:00:08.464Z,98300.95
2023-02-27T15:02:38.472Z,98302.38
2023-02-27T15:05:07.754Z,98309.85
2023-02-27T15:07:40.648Z,98311.48
2023-02-27T15:10:27.762Z,98315.87
2023-02-27T15:13:01.917Z,98316.98
2023-02-27T15:15:33.489Z,98323.07
2023-02-27T15:18:03.513Z,98324.86
2023-02-27T15:20:36.109Z,98334.00
2023-02-27T15:23:35.132Z,98337.11
2023-02-27T15:26:05.156Z,98347.90
2023-02-27T15:28:39.677Z,98354.43
2023-02-27T15:31:19.591Z,98360.98
2023-02-27T15:33:51.347Z,98366.79
2023-02-27T15:36:28.407Z,98369.63
2023-02-27T15:39:18.871Z,98376.55
2023-02-27T15:42:03.985Z,98380.84
2023-02-27T15:44:42.934Z,98379.53
2023-02-27T15:47:34.436Z,98379.45
2023-02-27T15:50:07.659Z,98378.50
2023-02-27T15:52:55.904Z,98379.08
2023-02-27T15:59:03.319Z,98383.94
2023-02-27T16:05:04.408Z,98402.79
2023-02-27T16:07:43.778Z,98407.44
2023-02-27T16:10:44.324Z,98411.35
2023-02-27T16:13:46.707Z,98416.81
2023-02-27T16:16:38.741Z,98423.28
2023-02-27T16:19:34.601Z,98426.06
2023-02-27T16:22:18.582Z,98433.38
2023-02-27T16:24:50.084Z,98442.07
2023-02-27T16:27:33.584Z,98443.31
2023-02-27T16:30:22.222Z,98447.52
2023-02-27T16:33:05.049Z,98455.59
2023-02-27T16:35:35.747Z,98454.96
2023-02-27T16:38:10.183Z,98456.59
2023-02-27T16:40:39.846Z,98456.86
2023-02-27T16:43:09.729Z,98457.52
2023-02-27T16:45:52.096Z,98465.29
2023-02-27T16:48:22.741Z,98475.49
2023-02-27T16:50:54.742Z,98480.39
2023-02-27T16:53:24.402Z,98486.52
2023-02-27T16:55:56.232Z,98488.20
2023-02-27T16:58:26.864Z,98486.39
2023-02-27T17:00:56.278Z,98487.49
2023-02-27T17:03:26.481Z,98491.05
2023-02-27T17:05:58.391Z,98492.38
2023-02-27T17:08:27.976Z,98500.88
2023-02-27T17:10:58.597Z,98508.48
2023-02-27T17:13:29.564Z,98515.02
2023-02-27T17:16:20.230Z,98511.11
2023-02-27T17:18:49.875Z,98507.14
2023-02-27T17:21:19.097Z,98511.18
2023-02-27T17:23:49.107Z,98520.37
2023-02-27T17:26:19.394Z,98527.42
2023-02-27T17:28:49.358Z,98533.73
2023-02-27T17:31:23.498Z,98535.84
2023-02-27T17:33:54.325Z,98533.60
2023-02-27T17:36:24.480Z,98537.38
2023-02-27T17:39:08.348Z,98535.97
2023-02-27T17:41:38.739Z,98538.33
2023-02-27T17:44:44.986Z,98539.42
2023-02-27T17:47:17.920Z,98543.05
2023-02-27T17:54:02.815Z,98543.12
2023-02-27T17:56:39.172Z,98550.05
2023-02-27T17:59:14.046Z,98551.33
2023-02-27T18:01:43.431Z,98556.13
2023-02-27T18:04:17.976Z,98554.56
2023-02-27T18:06:47.545Z,98557.71
2023-02-27T18:09:18.489Z,98559.75
2023-02-27T18:11:49.887Z,98563.02
2023-02-27T18:14:25.781Z,98560.69
2023-02-27T18:16:55.729Z,98561.08
2023-02-27T18:19:32.436Z,98562.54
2023-02-27T18:22:16.319Z,98569.99
2023-02-27T18:24:46.310Z,98572.77
2023-02-27T18:27:18.870Z,98570.44
2023-02-27T18:29:50.373Z,98575.31
2023-02-27T18:32:22.925Z,98578.45
2023-02-27T18:34:54.537Z,98575.48
2023-02-27T18:37:25.194Z,98575.90
2023-02-27T18:40:04.845Z,98577.92
2023-02-27T18:42:35.037Z,98579.14
2023-02-27T18:45:06.416Z,98582.13
2023-02-27T18:47:36.817Z,98586.29
2023-02-27T18:50:10.339Z,98587.84
2023-02-27T18:52:47.323Z,98591.10
2023-02-27T18:55:19.013Z,98595.64
2023-02-27T18:58:04.120Z,98594.85
2023-02-27T19:00:36.368Z,98587.95
2023-02-27T19:03:09.690Z,98581.85
2023-02-27T19:05:41.848Z,98586.86
2023-02-27T19:08:11.935Z,98594.57
2023-02-27T19:10:43.025Z,98594.43
2023-02-27T19:13:14.202Z,98596.75
2023-02-27T19:15:46.350Z,98595.81
2023-02-27T19:18:16.895Z,98593.00
2023-02-27T19:20:47.575Z,98589.56
2023-02-27T19:23:20.236Z,98593.73
2023-02-27T19:26:02.837Z,98604.02
2023-02-27T19:28:35.209Z,98606.18
2023-02-27T19:31:12.444Z,98610.38
2023-02-27T19:33:41.828Z,98619.47
2023-02-27T19:36:14.556Z,98623.85
2023-02-27T19:38:50.816Z,98632.38
2023-02-27T19:41:21.766Z,98638.86
2023-02-27T19:43:55.790Z,98641.81
2023-02-27T19:46:30.861Z,98642.74
2023-02-27T19:49:06.183Z,98641.30
2023-02-27T19:51:36.817Z,98639.11
2023-02-27T19:54:06.021Z,98639.58
2023-02-27T19:56:35.465Z,98640.60
2023-02-27T19:59:08.881Z,98645.23
2023-02-27T20:01:44.424Z,98644.06
2023-02-27T20:04:14.721Z,98646.14
2023-02-27T20:06:46.738Z,98649.16
2023-02-27T20:09:20.982Z,98646.36
2023-02-27T20:11:54.405Z,98647.48
2023-02-27T20:14:25.432Z,98652.15
2023-02-27T20:17:05.495Z,98654.13
2023-02-27T20:19:39.934Z,98652.71
2023-02-27T20:22:16.407Z,98655.73
2023-02-27T20:24:55.921Z,98653.41
2023-02-27T20:27:29.521Z,98655.88
2023-02-27T20:29:59.503Z,98648.81
2023-02-27T20:32:30.434Z,98647.24
2023-02-27T20:37:59.151Z,98652.56
2023-02-27T20:40:29.292Z,98655.08
2023-02-27T20:42:59.342Z,98656.00
2023-02-27T20:45:29.363Z,98659.89
2023-02-27T20:47:58.975Z,98657.22
2023-02-27T20:50:29.784Z,98661.09
2023-02-27T20:53:00.192Z,98658.31
2023-02-27T20:55:34.190Z,98652.58
2023-02-27T20:58:03.366Z,98656.02
2023-02-27T21:00:32.922Z,98656.07
2023-02-27T21:03:03.916Z,98659.77
2023-02-27T21:05:34.135Z,98657.03
2023-02-27T21:08:07.133Z,98660.80
2023-02-27T21:10:43.060Z,98657.70
2023-02-27T21:13:13.490Z,98661.17
2023-02-27T21:15:44.302Z,98664.55
2023-02-27T21:18:17.671Z,98659.02
2023-02-27T21:20:46.929Z,98650.96
2023-02-27T21:23:21.293Z,98650.20
2023-02-27T21:25:54.000Z,98648.60
2023-02-27T21:28:24.670Z,98647.90
2023-02-27T21:30:55.965Z,98648.61
2023-02-27T21:33:25.261Z,98650.20
2023-02-27T21:35:56.356Z,98644.10
2023-02-27T21:38:29.016Z,98643.91
2023-02-27T21:41:06.350Z,98643.22
2023-02-27T21:43:40.742Z,98650.56
2023-02-27T21:46:16.017Z,98656.12
2023-02-27T21:48:46.590Z,98670.65
2023-02-27T21:51:29.602Z,98682.38
2023-02-27T21:54:09.581Z,98687.41
2023-02-27T21:56:40.042Z,98683.34
2023-02-27T21:59:10.867Z,98687.39
2023-02-27T22:01:42.232Z,98692.05
2023-02-27T22:04:12.049Z,98685.39
2023-02-27T22:06:44.125Z,98685.23
2023-02-27T22:09:14.602Z,98685.61
2023-02-27T22:11:44.935Z,98698.10
2023-02-27T22:14:15.734Z,98696.55
2023-02-27T22:16:45.714Z,98709.23
2023-02-27T22:19:20.279Z,98719.65
2023-02-27T22:21:51.727Z,98723.60
2023-02-27T22:24:20.917Z,98727.40
2023-02-27T22:26:54.661Z,98736.21
2023-02-27T22:29:24.099Z,98725.34
2023-02-27T22:31:54.813Z,98716.63
2023-02-27T22:34:25.112Z,98723.31
2023-02-27T22:36:55.213Z,98726.21
2023-02-27T22:39:25.499Z,98724.41
2023-02-27T22:41:56.945Z,98719.21
2023-02-27T22:44:27.321Z,98709.45
2023-02-27T22:46:59.923Z,98711.84
2023-02-27T22:49:30.286Z,98706.92
2023-02-27T22:52:03.700Z,98701.61
2023-02-27T22:54:32.936Z,98706.33
2023-02-27T22:57:02.472Z,98698.23
2023-02-27T22:59:32.442Z,98695.09
2023-02-27T23:02:02.357Z,98702.06
2023-02-27T23:04:31.959Z,98708.41
2023-02-27T23:07:02.031Z,98710.98
2023-02-27T23:09:35.094Z,98707.73
2023-02-27T23:12:04.894Z,98702.23
2023-02-27T23:14:35.132Z,98709.34
2023-02-27T23:17:05.674Z,98706.08
2023-02-27T23:19:37.276Z,98705.17
2023-02-27T23:22:08.239Z,98707.63
2023-02-27T23:24:40.168Z,98703.93
2023-02-27T23:27:25.372Z,98705.56
2023-02-27T23:29:57.059Z,98708.88
2023-02-27T23:32:27.755Z,98709.30
2023-02-27T23:34:58.260Z,98711.27
2023-02-27T23:37:28.887Z,98713.77
2023-02-27T23:40:00.374Z,98711.81
2023-02-27T23:42:49.704Z,98721.55
2023-02-27T23:45:26.170Z,98717.70
2023-02-27T23:48:03.423Z,98722.76
2023-02-27T23:50:36.702Z,98732.30
2023-02-27T23:53:07.030Z,98733.16
2023-02-27T23:55:39.060Z,98736.45
2023-02-27T23:58:11.974Z,98737.10
